Marshallberg, North Carolina
Current Conditions -  °F | °C
As of 7:58 AM on Thursday 27 Nov 2014 (Local Time) from KMRH Reporting Station
Broken Clouds Broken Clouds  
Wind Chill: 47°   Ceiling: 11000
Heat Index: 47°   Visibility: 9mi
Dew Point: 45°   Wind: 3mph
Humidity: 93%   Direction: 100°E
Pressure: 30.06"   Gusts: NA
Location:  34.73°N, 76.52°W
Report Text: KMRH 271258Z AUTO 10003KT 9SM BKN110 08/07 A3006 RMK AO2 SLP180 T00830072 TSNO
Loading
Personal Weather Stations






























Interactive Weather Map New forecast layout! Learn more

10-Day Weather Forecast

Advertisements
Track Severe Weather on mobile